sensor_id;sensor_type;location;lat;lon;timestamp;P1;durP1;ratioP1;P2;durP2;ratioP2
11042;SDS011;5574;48.786;10.120;2023-08-20T00:00:07;6.72;;;6.00;;
11042;SDS011;5574;48.786;10.120;2023-08-20T00:02:35;8.13;;;6.10;;
11042;SDS011;5574;48.786;10.120;2023-08-20T00:05:03;6.38;;;5.75;;
11042;SDS011;5574;48.786;10.120;2023-08-20T00:07:31;6.90;;;5.70;;
11042;SDS011;5574;48.786;10.120;2023-08-20T00:09:58;7.13;;;6.03;;
11042;SDS011;5574;48.786;10.120;2023-08-20T00:12:26;6.88;;;6.20;;
11042;SDS011;5574;48.786;10.120;2023-08-20T00:14:54;6.05;;;5.32;;
11042;SDS011;5574;48.786;10.120;2023-08-20T00:17:23;6.47;;;5.90;;
11042;SDS011;5574;48.786;10.120;2023-08-20T00:19:52;7.97;;;6.60;;
11042;SDS011;5574;48.786;10.120;2023-08-20T00:22:19;9.00;;;8.10;;
11042;SDS011;5574;48.786;10.120;2023-08-20T00:24:48;7.82;;;7.15;;
11042;SDS011;5574;48.786;10.120;2023-08-20T00:27:16;6.18;;;5.60;;
11042;SDS011;5574;48.786;10.120;2023-08-20T00:29:44;6.57;;;6.07;;
11042;SDS011;5574;48.786;10.120;2023-08-20T00:32:11;7.88;;;5.88;;
11042;SDS011;5574;48.786;10.120;2023-08-20T00:34:38;7.57;;;5.97;;
11042;SDS011;5574;48.786;10.120;2023-08-20T00:37:05;6.72;;;6.07;;
11042;SDS011;5574;48.786;10.120;2023-08-20T00:39:32;7.28;;;6.40;;
11042;SDS011;5574;48.786;10.120;2023-08-20T00:41:58;8.10;;;6.10;;
11042;SDS011;5574;48.786;10.120;2023-08-20T00:44:25;8.95;;;6.50;;
11042;SDS011;5574;48.786;10.120;2023-08-20T00:46:53;9.73;;;6.22;;
11042;SDS011;5574;48.786;10.120;2023-08-20T00:49:20;7.32;;;6.30;;
11042;SDS011;5574;48.786;10.120;2023-08-20T00:51:46;7.15;;;6.28;;
11042;SDS011;5574;48.786;10.120;2023-08-20T00:54:14;6.57;;;6.00;;
11042;SDS011;5574;48.786;10.120;2023-08-20T00:56:41;6.35;;;5.75;;
11042;SDS011;5574;48.786;10.120;2023-08-20T00:59:08;6.88;;;6.28;;
11042;SDS011;5574;48.786;10.120;2023-08-20T01:01:36;9.13;;;6.53;;
11042;SDS011;5574;48.786;10.120;2023-08-20T01:04:04;7.45;;;6.10;;
11042;SDS011;5574;48.786;10.120;2023-08-20T01:06:32;7.75;;;6.00;;
11042;SDS011;5574;48.786;10.120;2023-08-20T01:09:06;7.57;;;6.07;;
11042;SDS011;5574;48.786;10.120;2023-08-20T01:11:40;6.90;;;6.30;;
11042;SDS011;5574;48.786;10.120;2023-08-20T01:14:16;7.55;;;6.05;;
11042;SDS011;5574;48.786;10.120;2023-08-20T01:16:43;7.10;;;6.38;;
11042;SDS011;5574;48.786;10.120;2023-08-20T01:19:12;7.15;;;6.45;;
11042;SDS011;5574;48.786;10.120;2023-08-20T01:21:44;6.35;;;5.85;;
11042;SDS011;5574;48.786;10.120;2023-08-20T01:24:23;11.00;;;6.55;;
11042;SDS011;5574;48.786;10.120;2023-08-20T01:27:07;7.28;;;5.88;;
11042;SDS011;5574;48.786;10.120;2023-08-20T01:29:45;6.95;;;6.30;;
11042;SDS011;5574;48.786;10.120;2023-08-20T01:32:12;7.35;;;6.25;;
11042;SDS011;5574;48.786;10.120;2023-08-20T01:34:40;7.32;;;6.60;;
11042;SDS011;5574;48.786;10.120;2023-08-20T01:37:06;6.82;;;6.10;;
11042;SDS011;5574;48.786;10.120;2023-08-20T01:39:33;7.38;;;6.55;;
11042;SDS011;5574;48.786;10.120;2023-08-20T01:42:00;7.07;;;6.20;;
11042;SDS011;5574;48.786;10.120;2023-08-20T01:44:26;6.88;;;5.70;;
11042;SDS011;5574;48.786;10.120;2023-08-20T01:46:54;7.65;;;6.25;;
11042;SDS011;5574;48.786;10.120;2023-08-20T01:49:21;6.88;;;6.28;;
11042;SDS011;5574;48.786;10.120;2023-08-20T01:51:48;8.18;;;6.80;;
11042;SDS011;5574;48.786;10.120;2023-08-20T01:54:14;8.32;;;6.93;;
11042;SDS011;5574;48.786;10.120;2023-08-20T01:56:42;7.03;;;5.75;;
11042;SDS011;5574;48.786;10.120;2023-08-20T01:59:08;10.48;;;6.60;;
11042;SDS011;5574;48.786;10.120;2023-08-20T02:01:35;6.95;;;6.10;;
11042;SDS011;5574;48.786;10.120;2023-08-20T02:04:03;7.80;;;6.60;;
11042;SDS011;5574;48.786;10.120;2023-08-20T02:06:30;6.90;;;6.20;;
11042;SDS011;5574;48.786;10.120;2023-08-20T02:08:57;6.90;;;6.28;;
11042;SDS011;5574;48.786;10.120;2023-08-20T02:11:23;6.72;;;6.13;;
11042;SDS011;5574;48.786;10.120;2023-08-20T02:13:50;8.15;;;6.15;;
11042;SDS011;5574;48.786;10.120;2023-08-20T02:16:17;6.65;;;6.00;;
11042;SDS011;5574;48.786;10.120;2023-08-20T02:18:44;9.18;;;6.43;;
11042;SDS011;5574;48.786;10.120;2023-08-20T02:21:12;8.00;;;6.30;;
11042;SDS011;5574;48.786;10.120;2023-08-20T02:23:38;6.82;;;6.22;;
11042;SDS011;5574;48.786;10.120;2023-08-20T02:26:05;6.90;;;6.13;;
11042;SDS011;5574;48.786;10.120;2023-08-20T02:28:32;6.70;;;6.10;;
11042;SDS011;5574;48.786;10.120;2023-08-20T02:30:58;7.20;;;6.50;;
11042;SDS011;5574;48.786;10.120;2023-08-20T02:33:30;7.07;;;6.40;;
11042;SDS011;5574;48.786;10.120;2023-08-20T02:36:00;9.68;;;6.97;;
11042;SDS011;5574;48.786;10.120;2023-08-20T02:38:29;7.70;;;6.40;;
11042;SDS011;5574;48.786;10.120;2023-08-20T02:40:55;7.22;;;6.50;;
11042;SDS011;5574;48.786;10.120;2023-08-20T02:43:22;7.10;;;6.40;;
11042;SDS011;5574;48.786;10.120;2023-08-20T02:45:49;7.38;;;6.40;;
11042;SDS011;5574;48.786;10.120;2023-08-20T02:48:16;6.82;;;6.15;;
11042;SDS011;5574;48.786;10.120;2023-08-20T02:50:43;9.40;;;6.15;;
11042;SDS011;5574;48.786;10.120;2023-08-20T02:53:10;7.45;;;6.57;;
11042;SDS011;5574;48.786;10.120;2023-08-20T02:55:38;9.63;;;6.93;;
11042;SDS011;5574;48.786;10.120;2023-08-20T02:58:05;9.27;;;6.35;;
11042;SDS011;5574;48.786;10.120;2023-08-20T03:00:34;6.95;;;6.13;;
11042;SDS011;5574;48.786;10.120;2023-08-20T03:03:01;9.25;;;6.80;;
11042;SDS011;5574;48.786;10.120;2023-08-20T03:05:29;7.40;;;6.70;;
11042;SDS011;5574;48.786;10.120;2023-08-20T03:07:55;9.10;;;6.75;;
11042;SDS011;5574;48.786;10.120;2023-08-20T03:10:22;6.53;;;6.03;;
11042;SDS011;5574;48.786;10.120;2023-08-20T03:12:50;8.32;;;6.40;;
11042;SDS011;5574;48.786;10.120;2023-08-20T03:15:17;7.20;;;6.50;;
11042;SDS011;5574;48.786;10.120;2023-08-20T03:17:44;9.40;;;6.53;;
11042;SDS011;5574;48.786;10.120;2023-08-20T03:20:11;8.75;;;7.30;;
11042;SDS011;5574;48.786;10.120;2023-08-20T03:22:37;13.27;;;6.72;;
11042;SDS011;5574;48.786;10.120;2023-08-20T03:25:04;8.00;;;7.20;;
11042;SDS011;5574;48.786;10.120;2023-08-20T03:27:32;7.25;;;6.53;;
11042;SDS011;5574;48.786;10.120;2023-08-20T03:30:00;7.40;;;6.55;;
11042;SDS011;5574;48.786;10.120;2023-08-20T03:32:27;7.68;;;6.82;;
11042;SDS011;5574;48.786;10.120;2023-08-20T03:34:53;7.38;;;6.68;;
11042;SDS011;5574;48.786;10.120;2023-08-20T03:37:21;6.88;;;6.28;;
11042;SDS011;5574;48.786;10.120;2023-08-20T03:39:48;8.00;;;7.20;;
11042;SDS011;5574;48.786;10.120;2023-08-20T03:42:14;8.68;;;7.85;;
11042;SDS011;5574;48.786;10.120;2023-08-20T03:44:41;8.20;;;7.57;;
11042;SDS011;5574;48.786;10.120;2023-08-20T03:47:09;7.75;;;7.03;;
11042;SDS011;5574;48.786;10.120;2023-08-20T03:49:36;9.52;;;7.40;;
11042;SDS011;5574;48.786;10.120;2023-08-20T03:52:03;9.35;;;7.35;;
11042;SDS011;5574;48.786;10.120;2023-08-20T03:54:32;7.10;;;6.40;;
11042;SDS011;5574;48.786;10.120;2023-08-20T03:56:59;7.82;;;7.13;;
11042;SDS011;5574;48.786;10.120;2023-08-20T03:59:26;7.60;;;6.85;;
11042;SDS011;5574;48.786;10.120;2023-08-20T04:01:52;8.75;;;6.93;;
11042;SDS011;5574;48.786;10.120;2023-08-20T04:04:20;7.85;;;7.05;;
11042;SDS011;5574;48.786;10.120;2023-08-20T04:06:47;7.90;;;7.20;;
11042;SDS011;5574;48.786;10.120;2023-08-20T04:09:15;8.18;;;7.07;;
11042;SDS011;5574;48.786;10.120;2023-08-20T04:11:41;11.00;;;7.43;;
11042;SDS011;5574;48.786;10.120;2023-08-20T04:14:08;8.52;;;7.60;;
11042;SDS011;5574;48.786;10.120;2023-08-20T04:16:35;7.60;;;6.65;;
11042;SDS011;5574;48.786;10.120;2023-08-20T04:19:01;7.60;;;6.88;;
11042;SDS011;5574;48.786;10.120;2023-08-20T04:21:30;7.53;;;6.93;;
11042;SDS011;5574;48.786;10.120;2023-08-20T04:23:56;9.15;;;7.05;;
11042;SDS011;5574;48.786;10.120;2023-08-20T04:26:24;8.15;;;7.30;;
11042;SDS011;5574;48.786;10.120;2023-08-20T04:28:50;7.80;;;7.10;;
11042;SDS011;5574;48.786;10.120;2023-08-20T04:31:17;7.57;;;6.82;;
11042;SDS011;5574;48.786;10.120;2023-08-20T04:33:45;7.75;;;6.95;;
11042;SDS011;5574;48.786;10.120;2023-08-20T04:36:11;8.57;;;7.30;;
11042;SDS011;5574;48.786;10.120;2023-08-20T04:38:39;7.47;;;6.78;;
11042;SDS011;5574;48.786;10.120;2023-08-20T04:41:06;7.78;;;7.07;;
11042;SDS011;5574;48.786;10.120;2023-08-20T04:43:33;7.53;;;6.80;;
11042;SDS011;5574;48.786;10.120;2023-08-20T04:46:00;8.65;;;7.57;;
11042;SDS011;5574;48.786;10.120;2023-08-20T04:48:26;7.28;;;6.68;;
11042;SDS011;5574;48.786;10.120;2023-08-20T04:50:53;8.07;;;7.28;;
11042;SDS011;5574;48.786;10.120;2023-08-20T04:53:20;8.60;;;6.75;;
11042;SDS011;5574;48.786;10.120;2023-08-20T04:55:48;6.90;;;6.30;;
11042;SDS011;5574;48.786;10.120;2023-08-20T04:58:14;8.00;;;7.30;;
11042;SDS011;5574;48.786;10.120;2023-08-20T05:00:42;7.22;;;6.63;;
11042;SDS011;5574;48.786;10.120;2023-08-20T05:03:09;10.15;;;7.30;;
11042;SDS011;5574;48.786;10.120;2023-08-20T05:05:35;8.70;;;6.68;;
11042;SDS011;5574;48.786;10.120;2023-08-20T05:08:02;8.35;;;7.43;;
11042;SDS011;5574;48.786;10.120;2023-08-20T05:10:29;8.30;;;7.45;;
11042;SDS011;5574;48.786;10.120;2023-08-20T05:12:57;8.73;;;7.07;;
11042;SDS011;5574;48.786;10.120;2023-08-20T05:15:24;8.07;;;7.40;;
11042;SDS011;5574;48.786;10.120;2023-08-20T05:17:51;7.90;;;7.20;;
11042;SDS011;5574;48.786;10.120;2023-08-20T05:20:17;12.23;;;7.82;;
11042;SDS011;5574;48.786;10.120;2023-08-20T05:22:44;8.05;;;7.25;;
11042;SDS011;5574;48.786;10.120;2023-08-20T05:25:11;8.27;;;7.57;;
11042;SDS011;5574;48.786;10.120;2023-08-20T05:27:37;12.88;;;8.32;;
11042;SDS011;5574;48.786;10.120;2023-08-20T05:30:06;8.95;;;8.15;;
11042;SDS011;5574;48.786;10.120;2023-08-20T05:32:34;8.35;;;7.65;;
11042;SDS011;5574;48.786;10.120;2023-08-20T05:35:01;8.05;;;7.25;;
11042;SDS011;5574;48.786;10.120;2023-08-20T05:37:29;8.02;;;7.03;;
11042;SDS011;5574;48.786;10.120;2023-08-20T05:39:55;8.02;;;7.22;;
11042;SDS011;5574;48.786;10.120;2023-08-20T05:42:22;7.60;;;6.88;;
11042;SDS011;5574;48.786;10.120;2023-08-20T05:44:49;8.57;;;7.80;;
11042;SDS011;5574;48.786;10.120;2023-08-20T05:47:17;8.00;;;7.30;;
11042;SDS011;5574;48.786;10.120;2023-08-20T05:49:44;8.73;;;7.75;;
11042;SDS011;5574;48.786;10.120;2023-08-20T05:52:11;11.48;;;7.93;;
11042;SDS011;5574;48.786;10.120;2023-08-20T05:54:37;9.70;;;8.80;;
11042;SDS011;5574;48.786;10.120;2023-08-20T05:57:04;11.65;;;8.25;;
11042;SDS011;5574;48.786;10.120;2023-08-20T05:59:31;10.25;;;8.43;;
11042;SDS011;5574;48.786;10.120;2023-08-20T06:01:58;9.23;;;8.30;;
11042;SDS011;5574;48.786;10.120;2023-08-20T06:04:28;9.25;;;8.45;;
11042;SDS011;5574;48.786;10.120;2023-08-20T06:06:54;9.18;;;8.35;;
11042;SDS011;5574;48.786;10.120;2023-08-20T06:09:21;8.30;;;7.60;;
11042;SDS011;5574;48.786;10.120;2023-08-20T06:11:48;8.93;;;7.95;;
11042;SDS011;5574;48.786;10.120;2023-08-20T06:14:16;9.57;;;8.13;;
11042;SDS011;5574;48.786;10.120;2023-08-20T06:16:43;11.75;;;8.27;;
11042;SDS011;5574;48.786;10.120;2023-08-20T06:19:10;8.70;;;7.80;;
11042;SDS011;5574;48.786;10.120;2023-08-20T06:21:38;8.90;;;8.00;;
11042;SDS011;5574;48.786;10.120;2023-08-20T06:24:05;10.70;;;7.90;;
11042;SDS011;5574;48.786;10.120;2023-08-20T06:26:32;8.60;;;7.78;;
11042;SDS011;5574;48.786;10.120;2023-08-20T06:28:59;8.95;;;8.05;;
11042;SDS011;5574;48.786;10.120;2023-08-20T06:31:25;9.85;;;7.97;;
11042;SDS011;5574;48.786;10.120;2023-08-20T06:33:52;10.25;;;8.15;;
11042;SDS011;5574;48.786;10.120;2023-08-20T06:36:19;8.77;;;7.85;;
11042;SDS011;5574;48.786;10.120;2023-08-20T06:38:47;8.52;;;7.65;;
11042;SDS011;5574;48.786;10.120;2023-08-20T06:41:14;9.93;;;8.18;;
11042;SDS011;5574;48.786;10.120;2023-08-20T06:43:40;8.45;;;7.65;;
11042;SDS011;5574;48.786;10.120;2023-08-20T06:46:07;8.43;;;7.68;;
11042;SDS011;5574;48.786;10.120;2023-08-20T06:48:34;9.13;;;8.23;;
11042;SDS011;5574;48.786;10.120;2023-08-20T06:51:07;9.23;;;8.32;;
11042;SDS011;5574;48.786;10.120;2023-08-20T06:53:34;9.50;;;8.70;;
11042;SDS011;5574;48.786;10.120;2023-08-20T06:56:02;10.95;;;8.35;;
11042;SDS011;5574;48.786;10.120;2023-08-20T06:58:29;9.40;;;8.60;;
11042;SDS011;5574;48.786;10.120;2023-08-20T07:00:56;11.60;;;8.60;;
11042;SDS011;5574;48.786;10.120;2023-08-20T07:03:33;9.48;;;8.40;;
11042;SDS011;5574;48.786;10.120;2023-08-20T07:06:00;9.57;;;8.75;;
11042;SDS011;5574;48.786;10.120;2023-08-20T07:08:26;9.65;;;8.68;;
11042;SDS011;5574;48.786;10.120;2023-08-20T07:10:53;10.32;;;8.65;;
11042;SDS011;5574;48.786;10.120;2023-08-20T07:13:21;9.77;;;8.95;;
11042;SDS011;5574;48.786;10.120;2023-08-20T07:15:48;10.57;;;9.57;;
11042;SDS011;5574;48.786;10.120;2023-08-20T07:18:15;10.45;;;9.48;;
11042;SDS011;5574;48.786;10.120;2023-08-20T07:20:42;13.50;;;9.85;;
11042;SDS011;5574;48.786;10.120;2023-08-20T07:23:09;12.65;;;9.60;;
11042;SDS011;5574;48.786;10.120;2023-08-20T07:25:36;9.68;;;8.70;;
11042;SDS011;5574;48.786;10.120;2023-08-20T07:28:04;11.90;;;9.07;;
11042;SDS011;5574;48.786;10.120;2023-08-20T07:30:32;10.68;;;9.63;;
11042;SDS011;5574;48.786;10.120;2023-08-20T07:32:59;9.93;;;8.93;;
11042;SDS011;5574;48.786;10.120;2023-08-20T07:35:26;10.75;;;9.70;;
11042;SDS011;5574;48.786;10.120;2023-08-20T07:37:52;10.13;;;9.13;;
11042;SDS011;5574;48.786;10.120;2023-08-20T07:40:19;9.98;;;9.18;;
11042;SDS011;5574;48.786;10.120;2023-08-20T07:42:46;10.82;;;9.70;;
11042;SDS011;5574;48.786;10.120;2023-08-20T07:45:13;10.90;;;9.52;;
11042;SDS011;5574;48.786;10.120;2023-08-20T07:47:41;11.25;;;8.95;;
11042;SDS011;5574;48.786;10.120;2023-08-20T07:50:08;9.48;;;8.68;;
11042;SDS011;5574;48.786;10.120;2023-08-20T07:52:35;9.70;;;8.80;;
11042;SDS011;5574;48.786;10.120;2023-08-20T07:55:01;10.23;;;9.23;;
11042;SDS011;5574;48.786;10.120;2023-08-20T07:57:28;11.82;;;8.90;;
11042;SDS011;5574;48.786;10.120;2023-08-20T07:59:55;10.75;;;9.68;;
11042;SDS011;5574;48.786;10.120;2023-08-20T08:02:21;9.80;;;8.90;;
11042;SDS011;5574;48.786;10.120;2023-08-20T08:04:49;10.48;;;9.48;;
11042;SDS011;5574;48.786;10.120;2023-08-20T08:07:16;10.52;;;9.30;;
11042;SDS011;5574;48.786;10.120;2023-08-20T08:09:43;10.50;;;9.10;;
11042;SDS011;5574;48.786;10.120;2023-08-20T08:12:10;9.98;;;8.80;;
11042;SDS011;5574;48.786;10.120;2023-08-20T08:14:37;9.63;;;8.73;;
11042;SDS011;5574;48.786;10.120;2023-08-20T08:17:05;9.95;;;8.40;;
11042;SDS011;5574;48.786;10.120;2023-08-20T08:19:32;13.35;;;9.40;;
11042;SDS011;5574;48.786;10.120;2023-08-20T08:22:00;9.98;;;9.07;;
11042;SDS011;5574;48.786;10.120;2023-08-20T08:24:28;11.65;;;8.85;;
11042;SDS011;5574;48.786;10.120;2023-08-20T08:26:55;10.10;;;9.05;;
11042;SDS011;5574;48.786;10.120;2023-08-20T08:29:21;9.30;;;8.43;;
11042;SDS011;5574;48.786;10.120;2023-08-20T08:31:48;10.40;;;9.23;;
11042;SDS011;5574;48.786;10.120;2023-08-20T08:34:15;11.23;;;8.50;;
11042;SDS011;5574;48.786;10.120;2023-08-20T08:36:42;10.82;;;8.73;;
11042;SDS011;5574;48.786;10.120;2023-08-20T08:39:11;8.63;;;7.75;;
11042;SDS011;5574;48.786;10.120;2023-08-20T08:41:38;10.38;;;9.35;;
11042;SDS011;5574;48.786;10.120;2023-08-20T08:44:05;9.88;;;8.40;;
11042;SDS011;5574;48.786;10.120;2023-08-20T08:46:34;10.45;;;8.60;;
11042;SDS011;5574;48.786;10.120;2023-08-20T08:49:01;11.77;;;9.10;;
11042;SDS011;5574;48.786;10.120;2023-08-20T08:51:29;9.27;;;8.20;;
11042;SDS011;5574;48.786;10.120;2023-08-20T08:53:57;9.95;;;8.77;;
11042;SDS011;5574;48.786;10.120;2023-08-20T08:56:26;10.43;;;8.57;;
11042;SDS011;5574;48.786;10.120;2023-08-20T08:58:53;9.43;;;8.50;;
11042;SDS011;5574;48.786;10.120;2023-08-20T09:01:20;9.27;;;8.38;;
11042;SDS011;5574;48.786;10.120;2023-08-20T09:03:47;10.30;;;8.70;;
11042;SDS011;5574;48.786;10.120;2023-08-20T09:06:12;9.13;;;8.23;;
11042;SDS011;5574;48.786;10.120;2023-08-20T09:08:39;8.77;;;7.97;;
11042;SDS011;5574;48.786;10.120;2023-08-20T09:11:06;10.57;;;8.32;;
11042;SDS011;5574;48.786;10.120;2023-08-20T09:13:34;9.50;;;8.32;;
11042;SDS011;5574;48.786;10.120;2023-08-20T09:16:05;9.57;;;8.13;;
11042;SDS011;5574;48.786;10.120;2023-08-20T09:18:33;13.98;;;8.63;;
11042;SDS011;5574;48.786;10.120;2023-08-20T09:21:05;9.43;;;8.48;;
11042;SDS011;5574;48.786;10.120;2023-08-20T09:23:33;9.32;;;8.30;;
11042;SDS011;5574;48.786;10.120;2023-08-20T09:26:01;9.38;;;8.50;;
11042;SDS011;5574;48.786;10.120;2023-08-20T09:28:28;9.90;;;8.30;;
11042;SDS011;5574;48.786;10.120;2023-08-20T09:30:58;9.07;;;8.18;;
11042;SDS011;5574;48.786;10.120;2023-08-20T09:33:26;9.82;;;8.60;;
11042;SDS011;5574;48.786;10.120;2023-08-20T09:35:53;9.52;;;8.55;;
11042;SDS011;5574;48.786;10.120;2023-08-20T09:38:20;9.32;;;8.50;;
11042;SDS011;5574;48.786;10.120;2023-08-20T09:40:48;10.30;;;9.40;;
11042;SDS011;5574;48.786;10.120;2023-08-20T09:43:17;9.77;;;8.77;;
11042;SDS011;5574;48.786;10.120;2023-08-20T09:45:45;8.85;;;8.05;;
11042;SDS011;5574;48.786;10.120;2023-08-20T09:48:16;9.45;;;8.63;;
11042;SDS011;5574;48.786;10.120;2023-08-20T09:50:46;9.00;;;8.10;;
11042;SDS011;5574;48.786;10.120;2023-08-20T09:53:17;11.32;;;8.82;;
11042;SDS011;5574;48.786;10.120;2023-08-20T09:55:51;9.70;;;8.77;;
11042;SDS011;5574;48.786;10.120;2023-08-20T09:58:18;8.88;;;8.07;;
11042;SDS011;5574;48.786;10.120;2023-08-20T10:00:50;10.05;;;8.38;;
11042;SDS011;5574;48.786;10.120;2023-08-20T10:03:19;9.73;;;8.68;;
11042;SDS011;5574;48.786;10.120;2023-08-20T10:05:47;10.55;;;8.25;;
11042;SDS011;5574;48.786;10.120;2023-08-20T10:08:15;9.50;;;8.50;;
11042;SDS011;5574;48.786;10.120;2023-08-20T10:10:43;9.05;;;8.15;;
11042;SDS011;5574;48.786;10.120;2023-08-20T10:13:11;9.40;;;8.48;;
11042;SDS011;5574;48.786;10.120;2023-08-20T10:15:39;10.95;;;8.68;;
11042;SDS011;5574;48.786;10.120;2023-08-20T10:18:07;8.48;;;7.63;;
11042;SDS011;5574;48.786;10.120;2023-08-20T10:20:35;8.88;;;8.07;;
11042;SDS011;5574;48.786;10.120;2023-08-20T10:23:05;9.15;;;7.68;;
11042;SDS011;5574;48.786;10.120;2023-08-20T10:25:32;8.23;;;7.50;;
11042;SDS011;5574;48.786;10.120;2023-08-20T10:28:12;8.68;;;7.78;;
11042;SDS011;5574;48.786;10.120;2023-08-20T10:33:33;9.93;;;7.85;;
11042;SDS011;5574;48.786;10.120;2023-08-20T10:36:07;8.80;;;6.82;;
11042;SDS011;5574;48.786;10.120;2023-08-20T10:38:36;8.38;;;6.80;;
11042;SDS011;5574;48.786;10.120;2023-08-20T10:41:05;6.90;;;6.30;;
11042;SDS011;5574;48.786;10.120;2023-08-20T10:43:33;8.50;;;5.97;;
11042;SDS011;5574;48.786;10.120;2023-08-20T10:46:04;7.25;;;5.78;;
11042;SDS011;5574;48.786;10.120;2023-08-20T10:48:31;6.97;;;5.22;;
11042;SDS011;5574;48.786;10.120;2023-08-20T10:51:05;6.07;;;5.57;;
11042;SDS011;5574;48.786;10.120;2023-08-20T10:53:34;6.32;;;5.07;;
11042;SDS011;5574;48.786;10.120;2023-08-20T10:56:08;6.47;;;5.40;;
11042;SDS011;5574;48.786;10.120;2023-08-20T10:58:37;6.93;;;5.97;;
11042;SDS011;5574;48.786;10.120;2023-08-20T11:01:18;7.10;;;6.05;;
11042;SDS011;5574;48.786;10.120;2023-08-20T11:03:46;10.13;;;6.07;;
11042;SDS011;5574;48.786;10.120;2023-08-20T11:06:16;6.18;;;5.32;;
11042;SDS011;5574;48.786;10.120;2023-08-20T11:08:43;14.80;;;6.20;;
11042;SDS011;5574;48.786;10.120;2023-08-20T11:11:10;7.50;;;5.40;;
11042;SDS011;5574;48.786;10.120;2023-08-20T11:13:38;5.80;;;5.20;;
11042;SDS011;5574;48.786;10.120;2023-08-20T11:16:05;7.57;;;5.43;;
11042;SDS011;5574;48.786;10.120;2023-08-20T11:18:32;8.02;;;5.75;;
11042;SDS011;5574;48.786;10.120;2023-08-20T11:20:59;6.32;;;5.72;;
11042;SDS011;5574;48.786;10.120;2023-08-20T11:23:28;9.27;;;5.93;;
11042;SDS011;5574;48.786;10.120;2023-08-20T11:25:56;5.97;;;5.22;;
11042;SDS011;5574;48.786;10.120;2023-08-20T11:28:24;6.30;;;5.53;;
11042;SDS011;5574;48.786;10.120;2023-08-20T11:30:51;9.00;;;5.07;;
11042;SDS011;5574;48.786;10.120;2023-08-20T11:33:19;8.45;;;4.93;;
11042;SDS011;5574;48.786;10.120;2023-08-20T11:35:47;6.65;;;5.10;;
11042;SDS011;5574;48.786;10.120;2023-08-20T11:38:14;5.47;;;4.70;;
11042;SDS011;5574;48.786;10.120;2023-08-20T11:40:42;7.25;;;5.47;;
11042;SDS011;5574;48.786;10.120;2023-08-20T11:43:09;7.75;;;4.78;;
11042;SDS011;5574;48.786;10.120;2023-08-20T11:45:43;5.68;;;4.90;;
11042;SDS011;5574;48.786;10.120;2023-08-20T11:48:11;6.00;;;5.20;;
11042;SDS011;5574;48.786;10.120;2023-08-20T11:50:38;7.50;;;4.90;;
11042;SDS011;5574;48.786;10.120;2023-08-20T11:53:05;7.43;;;4.50;;
11042;SDS011;5574;48.786;10.120;2023-08-20T11:55:33;6.78;;;4.65;;
11042;SDS011;5574;48.786;10.120;2023-08-20T11:58:01;5.50;;;4.50;;
11042;SDS011;5574;48.786;10.120;2023-08-20T12:00:29;23.60;;;5.80;;
11042;SDS011;5574;48.786;10.120;2023-08-20T12:02:57;11.85;;;8.90;;
11042;SDS011;5574;48.786;10.120;2023-08-20T12:05:26;7.25;;;6.53;;
11042;SDS011;5574;48.786;10.120;2023-08-20T12:07:56;7.60;;;5.90;;
11042;SDS011;5574;48.786;10.120;2023-08-20T12:10:24;7.25;;;5.93;;
11042;SDS011;5574;48.786;10.120;2023-08-20T12:12:51;6.47;;;5.78;;
11042;SDS011;5574;48.786;10.120;2023-08-20T12:15:20;6.80;;;5.78;;
11042;SDS011;5574;48.786;10.120;2023-08-20T12:17:59;6.70;;;4.63;;
11042;SDS011;5574;48.786;10.120;2023-08-20T12:20:29;7.70;;;5.40;;
11042;SDS011;5574;48.786;10.120;2023-08-20T12:22:58;5.50;;;4.85;;
11042;SDS011;5574;48.786;10.120;2023-08-20T12:25:26;9.73;;;5.70;;
11042;SDS011;5574;48.786;10.120;2023-08-20T12:27:52;7.32;;;5.78;;
11042;SDS011;5574;48.786;10.120;2023-08-20T12:30:20;9.30;;;6.30;;
11042;SDS011;5574;48.786;10.120;2023-08-20T12:32:47;8.88;;;6.05;;
11042;SDS011;5574;48.786;10.120;2023-08-20T12:35:14;7.93;;;5.68;;
11042;SDS011;5574;48.786;10.120;2023-08-20T12:37:41;7.53;;;6.22;;
11042;SDS011;5574;48.786;10.120;2023-08-20T12:40:08;6.72;;;5.90;;
11042;SDS011;5574;48.786;10.120;2023-08-20T12:42:37;7.65;;;5.90;;
11042;SDS011;5574;48.786;10.120;2023-08-20T12:45:04;9.00;;;6.35;;
11042;SDS011;5574;48.786;10.120;2023-08-20T12:47:33;7.50;;;5.97;;
11042;SDS011;5574;48.786;10.120;2023-08-20T12:50:00;9.32;;;6.07;;
11042;SDS011;5574;48.786;10.120;2023-08-20T12:52:28;6.07;;;5.47;;
11042;SDS011;5574;48.786;10.120;2023-08-20T12:54:54;5.88;;;5.22;;
11042;SDS011;5574;48.786;10.120;2023-08-20T12:57:21;7.30;;;5.93;;
11042;SDS011;5574;48.786;10.120;2023-08-20T12:59:48;6.05;;;5.45;;
11042;SDS011;5574;48.786;10.120;2023-08-20T13:02:15;14.05;;;6.18;;
11042;SDS011;5574;48.786;10.120;2023-08-20T13:04:43;6.72;;;5.78;;
11042;SDS011;5574;48.786;10.120;2023-08-20T13:07:10;6.70;;;5.70;;
11042;SDS011;5574;48.786;10.120;2023-08-20T13:09:38;5.82;;;5.32;;
11042;SDS011;5574;48.786;10.120;2023-08-20T13:12:06;6.22;;;5.55;;
11042;SDS011;5574;48.786;10.120;2023-08-20T13:14:37;6.35;;;5.13;;
11042;SDS011;5574;48.786;10.120;2023-08-20T13:17:04;6.25;;;5.60;;
11042;SDS011;5574;48.786;10.120;2023-08-20T13:19:32;6.18;;;5.45;;
11042;SDS011;5574;48.786;10.120;2023-08-20T13:22:00;6.38;;;5.00;;
11042;SDS011;5574;48.786;10.120;2023-08-20T13:24:26;6.00;;;5.10;;
11042;SDS011;5574;48.786;10.120;2023-08-20T13:26:53;7.30;;;5.38;;
11042;SDS011;5574;48.786;10.120;2023-08-20T13:29:20;6.82;;;4.90;;
11042;SDS011;5574;48.786;10.120;2023-08-20T13:31:46;6.03;;;5.10;;
11042;SDS011;5574;48.786;10.120;2023-08-20T13:34:13;6.75;;;5.18;;
11042;SDS011;5574;48.786;10.120;2023-08-20T13:36:40;6.57;;;4.88;;
11042;SDS011;5574;48.786;10.120;2023-08-20T13:39:08;5.57;;;4.88;;
11042;SDS011;5574;48.786;10.120;2023-08-20T13:41:38;7.93;;;4.65;;
11042;SDS011;5574;48.786;10.120;2023-08-20T13:44:05;7.47;;;5.55;;
11042;SDS011;5574;48.786;10.120;2023-08-20T13:46:32;6.80;;;5.53;;
11042;SDS011;5574;48.786;10.120;2023-08-20T13:48:59;6.57;;;5.78;;
11042;SDS011;5574;48.786;10.120;2023-08-20T13:51:26;6.10;;;5.47;;
11042;SDS011;5574;48.786;10.120;2023-08-20T13:53:53;6.60;;;5.30;;
11042;SDS011;5574;48.786;10.120;2023-08-20T13:56:21;6.85;;;5.50;;
11042;SDS011;5574;48.786;10.120;2023-08-20T13:58:47;5.72;;;5.07;;
11042;SDS011;5574;48.786;10.120;2023-08-20T14:01:14;5.70;;;5.13;;
11042;SDS011;5574;48.786;10.120;2023-08-20T14:03:41;6.20;;;5.00;;
11042;SDS011;5574;48.786;10.120;2023-08-20T14:06:08;6.60;;;5.32;;
11042;SDS011;5574;48.786;10.120;2023-08-20T14:08:34;9.25;;;5.35;;
11042;SDS011;5574;48.786;10.120;2023-08-20T14:11:01;5.65;;;5.13;;
11042;SDS011;5574;48.786;10.120;2023-08-20T14:13:29;8.75;;;5.90;;
11042;SDS011;5574;48.786;10.120;2023-08-20T14:15:57;6.65;;;5.95;;
11042;SDS011;5574;48.786;10.120;2023-08-20T14:18:25;7.18;;;5.75;;
11042;SDS011;5574;48.786;10.120;2023-08-20T14:20:52;6.97;;;5.28;;
11042;SDS011;5574;48.786;10.120;2023-08-20T14:23:18;6.30;;;5.80;;
11042;SDS011;5574;48.786;10.120;2023-08-20T14:25:45;6.75;;;5.40;;
11042;SDS011;5574;48.786;10.120;2023-08-20T14:28:12;6.20;;;5.60;;
11042;SDS011;5574;48.786;10.120;2023-08-20T14:30:40;6.40;;;5.60;;
11042;SDS011;5574;48.786;10.120;2023-08-20T14:33:06;7.28;;;5.80;;
11042;SDS011;5574;48.786;10.120;2023-08-20T14:35:33;6.57;;;5.60;;
11042;SDS011;5574;48.786;10.120;2023-08-20T14:38:00;6.95;;;5.70;;
11042;SDS011;5574;48.786;10.120;2023-08-20T14:40:27;7.15;;;5.90;;
11042;SDS011;5574;48.786;10.120;2023-08-20T14:42:53;6.88;;;5.22;;
11042;SDS011;5574;48.786;10.120;2023-08-20T14:45:20;10.15;;;5.80;;
11042;SDS011;5574;48.786;10.120;2023-08-20T14:47:48;7.03;;;5.68;;
11042;SDS011;5574;48.786;10.120;2023-08-20T14:50:15;5.57;;;5.18;;